sensor_id;sensor_type;location;lat;lon;timestamp;temperature;humidity
61591;DHT22;71994;52.410;-1.966;2023-09-19T00:01:47;18.10;62.30
61591;DHT22;71994;52.410;-1.966;2023-09-19T00:04:55;18.10;62.50
61591;DHT22;71994;52.410;-1.966;2023-09-19T00:08:02;18.10;62.40
61591;DHT22;71994;52.410;-1.966;2023-09-19T00:11:08;18.10;62.40
61591;DHT22;71994;52.410;-1.966;2023-09-19T00:14:18;18.10;62.40
61591;DHT22;71994;52.410;-1.966;2023-09-19T00:17:27;18.10;62.30
61591;DHT22;71994;52.410;-1.966;2023-09-19T00:20:36;18.10;62.50
61591;DHT22;71994;52.410;-1.966;2023-09-19T00:23:45;18.10;62.30
61591;DHT22;71994;52.410;-1.966;2023-09-19T00:26:51;18.10;62.30
61591;DHT22;71994;52.410;-1.966;2023-09-19T00:30:01;18.10;62.30
61591;DHT22;71994;52.410;-1.966;2023-09-19T00:33:08;18.10;62.20
61591;DHT22;71994;52.410;-1.966;2023-09-19T00:36:18;18.10;62.30
61591;DHT22;71994;52.410;-1.966;2023-09-19T00:39:26;18.10;62.30
61591;DHT22;71994;52.410;-1.966;2023-09-19T00:42:34;18.10;62.30
61591;DHT22;71994;52.410;-1.966;2023-09-19T00:45:45;18.10;62.20
61591;DHT22;71994;52.410;-1.966;2023-09-19T00:48:52;18.10;62.40
61591;DHT22;71994;52.410;-1.966;2023-09-19T00:52:00;18.10;62.30
61591;DHT22;71994;52.410;-1.966;2023-09-19T00:55:09;18.00;62.50
61591;DHT22;71994;52.410;-1.966;2023-09-19T00:58:17;18.10;62.30
61591;DHT22;71994;52.410;-1.966;2023-09-19T01:01:27;18.10;62.20
61591;DHT22;71994;52.410;-1.966;2023-09-19T01:04:33;18.10;62.30
61591;DHT22;71994;52.410;-1.966;2023-09-19T01:07:40;18.00;62.30
61591;DHT22;71994;52.410;-1.966;2023-09-19T01:10:52;18.00;62.50
61591;DHT22;71994;52.410;-1.966;2023-09-19T01:14:17;18.00;62.20
61591;DHT22;71994;52.410;-1.966;2023-09-19T01:17:32;18.00;62.20
61591;DHT22;71994;52.410;-1.966;2023-09-19T01:20:49;18.00;62.20
61591;DHT22;71994;52.410;-1.966;2023-09-19T01:24:33;18.00;62.20
61591;DHT22;71994;52.410;-1.966;2023-09-19T01:28:20;18.00;62.30
61591;DHT22;71994;52.410;-1.966;2023-09-19T01:31:33;18.00;62.40
61591;DHT22;71994;52.410;-1.966;2023-09-19T01:34:44;18.00;62.40
61591;DHT22;71994;52.410;-1.966;2023-09-19T01:37:51;18.00;62.20
61591;DHT22;71994;52.410;-1.966;2023-09-19T01:41:06;18.00;62.30
61591;DHT22;71994;52.410;-1.966;2023-09-19T01:44:22;18.00;62.10
61591;DHT22;71994;52.410;-1.966;2023-09-19T01:47:37;18.00;62.40
61591;DHT22;71994;52.410;-1.966;2023-09-19T01:50:49;17.90;62.10
61591;DHT22;71994;52.410;-1.966;2023-09-19T01:54:01;18.00;62.40
61591;DHT22;71994;52.410;-1.966;2023-09-19T01:57:15;18.00;62.20
61591;DHT22;71994;52.410;-1.966;2023-09-19T02:00:26;17.90;62.10
61591;DHT22;71994;52.410;-1.966;2023-09-19T02:03:38;17.90;62.20
61591;DHT22;71994;52.410;-1.966;2023-09-19T02:06:47;18.00;62.20
61591;DHT22;71994;52.410;-1.966;2023-09-19T02:09:54;17.90;62.10
61591;DHT22;71994;52.410;-1.966;2023-09-19T02:13:01;17.90;62.10
61591;DHT22;71994;52.410;-1.966;2023-09-19T02:16:09;17.90;62.00
61591;DHT22;71994;52.410;-1.966;2023-09-19T02:19:19;17.90;62.10
61591;DHT22;71994;52.410;-1.966;2023-09-19T02:22:25;17.90;62.10
61591;DHT22;71994;52.410;-1.966;2023-09-19T02:25:32;17.90;62.10
61591;DHT22;71994;52.410;-1.966;2023-09-19T02:28:38;17.90;62.00
61591;DHT22;71994;52.410;-1.966;2023-09-19T02:31:45;17.90;62.10
61591;DHT22;71994;52.410;-1.966;2023-09-19T02:34:54;17.90;62.20
61591;DHT22;71994;52.410;-1.966;2023-09-19T02:38:01;17.90;62.30
61591;DHT22;71994;52.410;-1.966;2023-09-19T02:41:09;17.90;62.40
61591;DHT22;71994;52.410;-1.966;2023-09-19T02:44:15;17.90;62.30
61591;DHT22;71994;52.410;-1.966;2023-09-19T02:47:23;17.90;62.30
61591;DHT22;71994;52.410;-1.966;2023-09-19T02:50:33;17.90;62.30
61591;DHT22;71994;52.410;-1.966;2023-09-19T02:53:39;17.90;62.40
61591;DHT22;71994;52.410;-1.966;2023-09-19T02:56:45;17.90;62.50
61591;DHT22;71994;52.410;-1.966;2023-09-19T02:59:52;17.80;62.50
61591;DHT22;71994;52.410;-1.966;2023-09-19T03:02:59;17.80;62.50
61591;DHT22;71994;52.410;-1.966;2023-09-19T03:06:09;17.80;62.40
61591;DHT22;71994;52.410;-1.966;2023-09-19T03:09:16;17.80;62.50
61591;DHT22;71994;52.410;-1.966;2023-09-19T03:12:22;17.80;62.60
61591;DHT22;71994;52.410;-1.966;2023-09-19T03:15:28;17.80;62.60
61591;DHT22;71994;52.410;-1.966;2023-09-19T03:18:35;17.80;62.70
61591;DHT22;71994;52.410;-1.966;2023-09-19T03:21:44;17.80;62.70
61591;DHT22;71994;52.410;-1.966;2023-09-19T03:24:52;17.80;62.70
61591;DHT22;71994;52.410;-1.966;2023-09-19T03:27:58;17.80;62.50
61591;DHT22;71994;52.410;-1.966;2023-09-19T03:31:09;17.80;62.50
61591;DHT22;71994;52.410;-1.966;2023-09-19T03:34:15;17.80;62.60
61591;DHT22;71994;52.410;-1.966;2023-09-19T03:37:25;17.80;62.50
61591;DHT22;71994;52.410;-1.966;2023-09-19T03:40:31;17.80;62.60
61591;DHT22;71994;52.410;-1.966;2023-09-19T03:43:40;17.80;62.50
61591;DHT22;71994;52.410;-1.966;2023-09-19T03:46:47;17.80;62.60
61591;DHT22;71994;52.410;-1.966;2023-09-19T03:49:53;17.80;62.60
61591;DHT22;71994;52.410;-1.966;2023-09-19T03:53:02;17.80;62.50
61591;DHT22;71994;52.410;-1.966;2023-09-19T03:56:10;17.80;62.50
61591;DHT22;71994;52.410;-1.966;2023-09-19T03:59:16;17.80;62.50
61591;DHT22;71994;52.410;-1.966;2023-09-19T04:02:22;17.80;62.60
61591;DHT22;71994;52.410;-1.966;2023-09-19T04:05:29;17.80;62.60
61591;DHT22;71994;52.410;-1.966;2023-09-19T04:08:38;17.80;62.50
61591;DHT22;71994;52.410;-1.966;2023-09-19T04:11:44;17.80;62.50
61591;DHT22;71994;52.410;-1.966;2023-09-19T04:14:50;17.80;62.60
61591;DHT22;71994;52.410;-1.966;2023-09-19T04:17:57;17.80;62.60
61591;DHT22;71994;52.410;-1.966;2023-09-19T04:21:03;17.80;62.50
61591;DHT22;71994;52.410;-1.966;2023-09-19T04:24:12;17.70;62.50
61591;DHT22;71994;52.410;-1.966;2023-09-19T04:27:19;17.80;62.50
61591;DHT22;71994;52.410;-1.966;2023-09-19T04:30:26;17.70;62.50
61591;DHT22;71994;52.410;-1.966;2023-09-19T04:33:32;17.70;62.60
61591;DHT22;71994;52.410;-1.966;2023-09-19T04:36:38;17.70;62.40
61591;DHT22;71994;52.410;-1.966;2023-09-19T04:39:47;17.70;62.50
61591;DHT22;71994;52.410;-1.966;2023-09-19T04:42:54;17.70;62.30
61591;DHT22;71994;52.410;-1.966;2023-09-19T04:46:02;17.70;62.50
61591;DHT22;71994;52.410;-1.966;2023-09-19T04:49:09;17.70;62.30
61591;DHT22;71994;52.410;-1.966;2023-09-19T04:52:15;17.70;62.30
61591;DHT22;71994;52.410;-1.966;2023-09-19T04:55:25;17.70;62.40
61591;DHT22;71994;52.410;-1.966;2023-09-19T04:58:33;17.70;62.40
61591;DHT22;71994;52.410;-1.966;2023-09-19T05:01:39;17.70;62.40
61591;DHT22;71994;52.410;-1.966;2023-09-19T05:04:46;17.70;62.30
61591;DHT22;71994;52.410;-1.966;2023-09-19T05:07:53;17.70;62.50
61591;DHT22;71994;52.410;-1.966;2023-09-19T05:11:05;17.70;62.50
61591;DHT22;71994;52.410;-1.966;2023-09-19T05:14:12;17.70;62.30
61591;DHT22;71994;52.410;-1.966;2023-09-19T05:17:18;17.70;62.40
61591;DHT22;71994;52.410;-1.966;2023-09-19T05:20:24;17.70;62.60
61591;DHT22;71994;52.410;-1.966;2023-09-19T05:23:32;17.70;62.50
61591;DHT22;71994;52.410;-1.966;2023-09-19T05:26:42;17.70;62.50
61591;DHT22;71994;52.410;-1.966;2023-09-19T05:29:49;17.70;62.50
61591;DHT22;71994;52.410;-1.966;2023-09-19T05:32:56;17.70;62.50
61591;DHT22;71994;52.410;-1.966;2023-09-19T05:36:03;17.70;62.60
61591;DHT22;71994;52.410;-1.966;2023-09-19T05:39:10;17.60;62.60
61591;DHT22;71994;52.410;-1.966;2023-09-19T05:42:19;17.60;62.70
61591;DHT22;71994;52.410;-1.966;2023-09-19T05:45:26;17.70;62.70
61591;DHT22;71994;52.410;-1.966;2023-09-19T05:48:32;17.60;62.70
61591;DHT22;71994;52.410;-1.966;2023-09-19T05:51:39;17.70;62.80
61591;DHT22;71994;52.410;-1.966;2023-09-19T05:54:45;17.60;62.90
61591;DHT22;71994;52.410;-1.966;2023-09-19T05:57:55;17.60;62.90
61591;DHT22;71994;52.410;-1.966;2023-09-19T06:01:01;17.60;62.80
61591;DHT22;71994;52.410;-1.966;2023-09-19T06:04:08;17.60;62.70
61591;DHT22;71994;52.410;-1.966;2023-09-19T06:07:14;17.60;62.80
61591;DHT22;71994;52.410;-1.966;2023-09-19T06:10:20;17.60;62.90
61591;DHT22;71994;52.410;-1.966;2023-09-19T06:13:31;17.60;63.10
61591;DHT22;71994;52.410;-1.966;2023-09-19T06:16:37;17.60;63.10
61591;DHT22;71994;52.410;-1.966;2023-09-19T06:19:45;17.60;63.00
61591;DHT22;71994;52.410;-1.966;2023-09-19T06:22:53;17.60;63.10
61591;DHT22;71994;52.410;-1.966;2023-09-19T06:26:00;17.60;63.10
61591;DHT22;71994;52.410;-1.966;2023-09-19T06:29:09;17.60;63.20
61591;DHT22;71994;52.410;-1.966;2023-09-19T06:32:17;17.60;63.50
61591;DHT22;71994;52.410;-1.966;2023-09-19T06:35:25;17.60;63.90
61591;DHT22;71994;52.410;-1.966;2023-09-19T06:38:32;17.70;63.90
61591;DHT22;71994;52.410;-1.966;2023-09-19T06:41:39;17.70;64.10
61591;DHT22;71994;52.410;-1.966;2023-09-19T06:44:48;17.70;64.00
61591;DHT22;71994;52.410;-1.966;2023-09-19T06:47:54;17.70;64.00
61591;DHT22;71994;52.410;-1.966;2023-09-19T06:51:03;17.70;64.00
61591;DHT22;71994;52.410;-1.966;2023-09-19T06:54:09;17.70;64.10
61591;DHT22;71994;52.410;-1.966;2023-09-19T06:57:15;17.70;64.20
61591;DHT22;71994;52.410;-1.966;2023-09-19T07:00:25;17.70;64.20
61591;DHT22;71994;52.410;-1.966;2023-09-19T07:03:34;17.70;64.30
61591;DHT22;71994;52.410;-1.966;2023-09-19T07:06:42;17.70;64.40
61591;DHT22;71994;52.410;-1.966;2023-09-19T07:09:49;17.70;64.40
61591;DHT22;71994;52.410;-1.966;2023-09-19T07:12:57;17.70;64.50
61591;DHT22;71994;52.410;-1.966;2023-09-19T07:16:06;17.70;64.60
61591;DHT22;71994;52.410;-1.966;2023-09-19T07:19:17;17.70;64.70
61591;DHT22;71994;52.410;-1.966;2023-09-19T07:22:23;17.70;64.80
61591;DHT22;71994;52.410;-1.966;2023-09-19T07:25:29;17.70;64.70
61591;DHT22;71994;52.410;-1.966;2023-09-19T07:28:36;17.70;64.70
61591;DHT22;71994;52.410;-1.966;2023-09-19T07:31:45;17.70;64.70
61591;DHT22;71994;52.410;-1.966;2023-09-19T07:34:52;17.70;64.70
61591;DHT22;71994;52.410;-1.966;2023-09-19T07:37:59;17.70;64.70
61591;DHT22;71994;52.410;-1.966;2023-09-19T07:41:07;17.70;64.70
61591;DHT22;71994;52.410;-1.966;2023-09-19T07:44:14;17.70;64.70
61591;DHT22;71994;52.410;-1.966;2023-09-19T07:47:24;17.70;64.70
61591;DHT22;71994;52.410;-1.966;2023-09-19T07:50:30;17.70;64.70
61591;DHT22;71994;52.410;-1.966;2023-09-19T07:53:37;17.70;64.80
61591;DHT22;71994;52.410;-1.966;2023-09-19T07:56:45;17.70;64.70
61591;DHT22;71994;52.410;-1.966;2023-09-19T07:59:51;17.70;64.70
61591;DHT22;71994;52.410;-1.966;2023-09-19T08:03:00;17.70;64.70
61591;DHT22;71994;52.410;-1.966;2023-09-19T08:06:07;17.70;65.00
61591;DHT22;71994;52.410;-1.966;2023-09-19T08:09:14;17.70;64.90
61591;DHT22;71994;52.410;-1.966;2023-09-19T08:12:24;17.70;64.80
61591;DHT22;71994;52.410;-1.966;2023-09-19T08:15:31;17.70;64.80
61591;DHT22;71994;52.410;-1.966;2023-09-19T08:18:40;17.70;64.70
61591;DHT22;71994;52.410;-1.966;2023-09-19T08:21:47;17.80;64.70
61591;DHT22;71994;52.410;-1.966;2023-09-19T08:24:54;17.80;64.70
61591;DHT22;71994;52.410;-1.966;2023-09-19T08:28:00;17.80;64.70
61591;DHT22;71994;52.410;-1.966;2023-09-19T08:31:11;17.80;64.70
61591;DHT22;71994;52.410;-1.966;2023-09-19T08:34:20;17.80;64.80
61591;DHT22;71994;52.410;-1.966;2023-09-19T08:37:27;17.80;64.80
61591;DHT22;71994;52.410;-1.966;2023-09-19T08:40:36;17.80;64.80
61591;DHT22;71994;52.410;-1.966;2023-09-19T08:43:44;17.80;64.80
61591;DHT22;71994;52.410;-1.966;2023-09-19T08:46:55;17.80;65.00
61591;DHT22;71994;52.410;-1.966;2023-09-19T08:50:10;17.80;64.90
61591;DHT22;71994;52.410;-1.966;2023-09-19T08:53:23;17.70;65.00
61591;DHT22;71994;52.410;-1.966;2023-09-19T08:56:35;17.70;65.10
61591;DHT22;71994;52.410;-1.966;2023-09-19T08:59:43;17.70;65.30
61591;DHT22;71994;52.410;-1.966;2023-09-19T09:02:51;17.80;65.30
61591;DHT22;71994;52.410;-1.966;2023-09-19T09:06:01;17.80;65.30
61591;DHT22;71994;52.410;-1.966;2023-09-19T09:09:08;17.80;65.20
61591;DHT22;71994;52.410;-1.966;2023-09-19T09:12:15;17.80;65.10
61591;DHT22;71994;52.410;-1.966;2023-09-19T09:15:22;17.80;65.10
61591;DHT22;71994;52.410;-1.966;2023-09-19T09:18:29;17.80;65.20
61591;DHT22;71994;52.410;-1.966;2023-09-19T09:21:38;17.80;65.20
61591;DHT22;71994;52.410;-1.966;2023-09-19T09:24:53;17.80;65.20
61591;DHT22;71994;52.410;-1.966;2023-09-19T09:28:02;17.80;65.20
61591;DHT22;71994;52.410;-1.966;2023-09-19T09:31:22;17.80;65.30
61591;DHT22;71994;52.410;-1.966;2023-09-19T09:34:32;17.80;65.30
61591;DHT22;71994;52.410;-1.966;2023-09-19T09:37:43;17.80;65.30
61591;DHT22;71994;52.410;-1.966;2023-09-19T09:40:52;17.90;65.30
61591;DHT22;71994;52.410;-1.966;2023-09-19T09:44:12;17.90;65.40
61591;DHT22;71994;52.410;-1.966;2023-09-19T09:47:41;17.80;65.50
61591;DHT22;71994;52.410;-1.966;2023-09-19T09:50:53;17.90;65.50
61591;DHT22;71994;52.410;-1.966;2023-09-19T09:54:13;17.90;65.50
61591;DHT22;71994;52.410;-1.966;2023-09-19T09:57:20;17.90;65.50
61591;DHT22;71994;52.410;-1.966;2023-09-19T10:00:30;17.90;65.60
61591;DHT22;71994;52.410;-1.966;2023-09-19T10:03:45;17.90;65.60
61591;DHT22;71994;52.410;-1.966;2023-09-19T10:06:52;17.90;65.70
61591;DHT22;71994;52.410;-1.966;2023-09-19T10:10:02;17.90;65.70
61591;DHT22;71994;52.410;-1.966;2023-09-19T10:13:19;17.90;65.80
61591;DHT22;71994;52.410;-1.966;2023-09-19T10:16:28;17.90;65.80
61591;DHT22;71994;52.410;-1.966;2023-09-19T10:19:37;17.90;65.90
61591;DHT22;71994;52.410;-1.966;2023-09-19T10:22:50;17.80;65.80
61591;DHT22;71994;52.410;-1.966;2023-09-19T10:26:05;17.90;65.80
61591;DHT22;71994;52.410;-1.966;2023-09-19T10:29:13;17.90;65.90
61591;DHT22;71994;52.410;-1.966;2023-09-19T10:32:22;17.90;66.00
61591;DHT22;71994;52.410;-1.966;2023-09-19T10:35:46;17.90;66.10
61591;DHT22;71994;52.410;-1.966;2023-09-19T10:38:56;17.80;66.10
61591;DHT22;71994;52.410;-1.966;2023-09-19T10:42:10;17.80;66.20
61591;DHT22;71994;52.410;-1.966;2023-09-19T10:45:20;17.90;66.10
61591;DHT22;71994;52.410;-1.966;2023-09-19T10:48:30;17.90;66.10
61591;DHT22;71994;52.410;-1.966;2023-09-19T10:51:41;17.90;66.10
61591;DHT22;71994;52.410;-1.966;2023-09-19T10:54:51;17.90;66.20
61591;DHT22;71994;52.410;-1.966;2023-09-19T10:58:03;18.00;66.20
61591;DHT22;71994;52.410;-1.966;2023-09-19T11:01:17;18.00;66.20
61591;DHT22;71994;52.410;-1.966;2023-09-19T11:04:26;18.00;66.20
61591;DHT22;71994;52.410;-1.966;2023-09-19T11:07:58;18.00;66.20
61591;DHT22;71994;52.410;-1.966;2023-09-19T11:11:44;18.00;66.30
61591;DHT22;71994;52.410;-1.966;2023-09-19T11:14:55;18.00;66.30
61591;DHT22;71994;52.410;-1.966;2023-09-19T11:18:01;17.90;66.30
61591;DHT22;71994;52.410;-1.966;2023-09-19T11:21:53;18.00;66.40
61591;DHT22;71994;52.410;-1.966;2023-09-19T11:29:24;18.00;66.50
61591;DHT22;71994;52.410;-1.966;2023-09-19T11:36:12;17.90;66.70
61591;DHT22;71994;52.410;-1.966;2023-09-19T11:39:25;18.00;66.60
61591;DHT22;71994;52.410;-1.966;2023-09-19T11:42:42;17.90;66.60
61591;DHT22;71994;52.410;-1.966;2023-09-19T11:46:08;17.90;66.70
61591;DHT22;71994;52.410;-1.966;2023-09-19T11:49:16;17.90;66.80
61591;DHT22;71994;52.410;-1.966;2023-09-19T11:52:26;17.90;66.80
61591;DHT22;71994;52.410;-1.966;2023-09-19T11:55:37;17.90;66.80
61591;DHT22;71994;52.410;-1.966;2023-09-19T11:58:46;17.90;66.90
61591;DHT22;71994;52.410;-1.966;2023-09-19T12:02:04;17.90;66.90
61591;DHT22;71994;52.410;-1.966;2023-09-19T12:05:13;18.00;67.00
61591;DHT22;71994;52.410;-1.966;2023-09-19T12:08:20;18.00;66.80
61591;DHT22;71994;52.410;-1.966;2023-09-19T12:11:29;17.90;66.90
61591;DHT22;71994;52.410;-1.966;2023-09-19T12:14:36;17.90;66.90
61591;DHT22;71994;52.410;-1.966;2023-09-19T12:17:47;18.00;67.00
61591;DHT22;71994;52.410;-1.966;2023-09-19T12:20:54;18.00;66.90
61591;DHT22;71994;52.410;-1.966;2023-09-19T12:24:05;18.00;67.00
61591;DHT22;71994;52.410;-1.966;2023-09-19T12:27:14;18.00;67.00
61591;DHT22;71994;52.410;-1.966;2023-09-19T12:30:27;17.90;67.00
61591;DHT22;71994;52.410;-1.966;2023-09-19T12:33:39;18.00;67.10
61591;DHT22;71994;52.410;-1.966;2023-09-19T12:36:45;18.00;67.00
61591;DHT22;71994;52.410;-1.966;2023-09-19T12:40:04;18.00;67.10
61591;DHT22;71994;52.410;-1.966;2023-09-19T12:43:27;18.00;67.20
61591;DHT22;71994;52.410;-1.966;2023-09-19T12:46:35;17.90;67.20
61591;DHT22;71994;52.410;-1.966;2023-09-19T12:50:11;18.00;67.30
61591;DHT22;71994;52.410;-1.966;2023-09-19T12:53:25;18.00;67.20
61591;DHT22;71994;52.410;-1.966;2023-09-19T12:56:39;17.90;67.40
61591;DHT22;71994;52.410;-1.966;2023-09-19T12:59:52;17.90;67.40
61591;DHT22;71994;52.410;-1.966;2023-09-19T13:03:14;18.00;67.40
61591;DHT22;71994;52.410;-1.966;2023-09-19T13:06:38;18.00;67.40
61591;DHT22;71994;52.410;-1.966;2023-09-19T13:10:05;17.90;67.50
61591;DHT22;71994;52.410;-1.966;2023-09-19T13:13:23;17.90;67.60
61591;DHT22;71994;52.410;-1.966;2023-09-19T13:16:30;17.90;67.60
61591;DHT22;71994;52.410;-1.966;2023-09-19T13:19:41;17.90;67.60
61591;DHT22;71994;52.410;-1.966;2023-09-19T13:22:54;17.90;67.70
61591;DHT22;71994;52.410;-1.966;2023-09-19T13:26:02;17.90;67.70
61591;DHT22;71994;52.410;-1.966;2023-09-19T13:29:09;17.90;67.80
61591;DHT22;71994;52.410;-1.966;2023-09-19T13:32:15;17.90;67.80
61591;DHT22;71994;52.410;-1.966;2023-09-19T13:35:22;17.90;67.80
61591;DHT22;71994;52.410;-1.966;2023-09-19T13:38:31;17.90;67.80
61591;DHT22;71994;52.410;-1.966;2023-09-19T13:41:37;17.90;67.90
61591;DHT22;71994;52.410;-1.966;2023-09-19T13:44:45;17.90;67.80
61591;DHT22;71994;52.410;-1.966;2023-09-19T13:47:51;17.90;67.90
61591;DHT22;71994;52.410;-1.966;2023-09-19T13:50:57;17.90;67.90
61591;DHT22;71994;52.410;-1.966;2023-09-19T13:54:07;17.90;67.90
61591;DHT22;71994;52.410;-1.966;2023-09-19T13:57:14;18.00;68.00
61591;DHT22;71994;52.410;-1.966;2023-09-19T14:00:21;17.90;67.90
61591;DHT22;71994;52.410;-1.966;2023-09-19T14:03:27;17.90;67.90
61591;DHT22;71994;52.410;-1.966;2023-09-19T14:06:34;17.90;67.90
61591;DHT22;71994;52.410;-1.966;2023-09-19T14:09:43;18.00;68.30
61591;DHT22;71994;52.410;-1.966;2023-09-19T14:12:50;18.00;68.10
61591;DHT22;71994;52.410;-1.966;2023-09-19T14:15:56;18.10;67.90
61591;DHT22;71994;52.410;-1.966;2023-09-19T14:19:03;18.10;67.80
61591;DHT22;71994;52.410;-1.966;2023-09-19T14:22:11;18.10;67.70
61591;DHT22;71994;52.410;-1.966;2023-09-19T14:25:20;18.10;67.80
61591;DHT22;71994;52.410;-1.966;2023-09-19T14:28:26;18.10;67.80
61591;DHT22;71994;52.410;-1.966;2023-09-19T14:31:33;18.10;67.70
61591;DHT22;71994;52.410;-1.966;2023-09-19T14:34:52;18.10;67.70
61591;DHT22;71994;52.410;-1.966;2023-09-19T14:37:59;18.10;67.70
61591;DHT22;71994;52.410;-1.966;2023-09-19T14:41:08;18.10;67.70
61591;DHT22;71994;52.410;-1.966;2023-09-19T14:44:14;18.10;67.60
61591;DHT22;71994;52.410;-1.966;2023-09-19T14:47:27;18.10;67.60
61591;DHT22;71994;52.410;-1.966;2023-09-19T14:50:51;18.10;67.60
61591;DHT22;71994;52.410;-1.966;2023-09-19T14:53:58;18.10;67.70
61591;DHT22;71994;52.410;-1.966;2023-09-19T14:57:08;18.10;67.70
61591;DHT22;71994;52.410;-1.966;2023-09-19T15:00:17;18.10;67.80
61591;DHT22;71994;52.410;-1.966;2023-09-19T15:03:26;18.10;67.80
61591;DHT22;71994;52.410;-1.966;2023-09-19T15:06:33;18.10;67.90
61591;DHT22;71994;52.410;-1.966;2023-09-19T15:09:39;18.10;68.00
61591;DHT22;71994;52.410;-1.966;2023-09-19T15:12:50;18.10;67.90
61591;DHT22;71994;52.410;-1.966;2023-09-19T15:15:59;18.10;68.10
61591;DHT22;71994;52.410;-1.966;2023-09-19T15:19:06;18.10;67.90
61591;DHT22;71994;52.410;-1.966;2023-09-19T15:22:13;18.10;67.90
61591;DHT22;71994;52.410;-1.966;2023-09-19T15:25:19;18.10;67.80
61591;DHT22;71994;52.410;-1.966;2023-09-19T15:28:30;18.10;67.80
61591;DHT22;71994;52.410;-1.966;2023-09-19T15:31:37;18.10;67.90
61591;DHT22;71994;52.410;-1.966;2023-09-19T15:34:43;18.10;67.90
61591;DHT22;71994;52.410;-1.966;2023-09-19T15:37:49;18.10;67.90
61591;DHT22;71994;52.410;-1.966;2023-09-19T15:40:58;18.10;67.90
61591;DHT22;71994;52.410;-1.966;2023-09-19T15:44:14;18.10;67.80
61591;DHT22;71994;52.410;-1.966;2023-09-19T15:47:21;18.10;67.80
61591;DHT22;71994;52.410;-1.966;2023-09-19T15:50:28;18.10;67.70
61591;DHT22;71994;52.410;-1.966;2023-09-19T15:53:42;18.10;67.70
61591;DHT22;71994;52.410;-1.966;2023-09-19T15:56:50;18.10;67.60
61591;DHT22;71994;52.410;-1.966;2023-09-19T15:59:59;18.10;67.60
61591;DHT22;71994;52.410;-1.966;2023-09-19T16:03:07;18.10;67.60
61591;DHT22;71994;52.410;-1.966;2023-09-19T16:06:15;18.10;67.60
61591;DHT22;71994;52.410;-1.966;2023-09-19T16:09:21;18.10;67.70
61591;DHT22;71994;52.410;-1.966;2023-09-19T16:12:28;18.10;67.70
61591;DHT22;71994;52.410;-1.966;2023-09-19T16:15:41;18.10;67.80
61591;DHT22;71994;52.410;-1.966;2023-09-19T16:18:48;18.10;67.80
61591;DHT22;71994;52.410;-1.966;2023-09-19T16:21:54;18.10;67.90
61591;DHT22;71994;52.410;-1.966;2023-09-19T16:25:02;18.10;68.00
61591;DHT22;71994;52.410;-1.966;2023-09-19T16:28:09;18.10;68.10
61591;DHT22;71994;52.410;-1.966;2023-09-19T16:31:18;18.10;68.20
61591;DHT22;71994;52.410;-1.966;2023-09-19T16:34:24;18.10;68.00
61591;DHT22;71994;52.410;-1.966;2023-09-19T16:37:30;18.10;67.90
61591;DHT22;71994;52.410;-1.966;2023-09-19T16:40:36;18.10;67.90
61591;DHT22;71994;52.410;-1.966;2023-09-19T16:43:44;18.10;68.00
61591;DHT22;71994;52.410;-1.966;2023-09-19T16:46:54;18.10;68.00
61591;DHT22;71994;52.410;-1.966;2023-09-19T16:50:00;18.10;68.10
61591;DHT22;71994;52.410;-1.966;2023-09-19T16:53:08;18.10;68.20
61591;DHT22;71994;52.410;-1.966;2023-09-19T16:56:15;18.00;68.20
61591;DHT22;71994;52.410;-1.966;2023-09-19T16:59:21;18.10;68.30
61591;DHT22;71994;52.410;-1.966;2023-09-19T17:02:31;18.00;68.30
61591;DHT22;71994;52.410;-1.966;2023-09-19T17:05:39;18.10;68.30
61591;DHT22;71994;52.410;-1.966;2023-09-19T17:08:49;18.00;68.20
61591;DHT22;71994;52.410;-1.966;2023-09-19T17:11:55;18.10;68.30
61591;DHT22;71994;52.410;-1.966;2023-09-19T17:15:02;18.00;68.30
61591;DHT22;71994;52.410;-1.966;2023-09-19T17:18:11;18.00;68.30
61591;DHT22;71994;52.410;-1.966;2023-09-19T17:21:17;18.00;68.30
61591;DHT22;71994;52.410;-1.966;2023-09-19T17:24:24;18.00;68.30
61591;DHT22;71994;52.410;-1.966;2023-09-19T17:27:30;18.00;68.30
61591;DHT22;71994;52.410;-1.966;2023-09-19T17:30:36;18.00;68.30
61591;DHT22;71994;52.410;-1.966;2023-09-19T17:33:46;18.00;68.20
61591;DHT22;71994;52.410;-1.966;2023-09-19T17:36:53;18.00;68.30
61591;DHT22;71994;52.410;-1.966;2023-09-19T17:40:00;18.00;68.30
61591;DHT22;71994;52.410;-1.966;2023-09-19T17:43:08;18.00;68.30
61591;DHT22;71994;52.410;-1.966;2023-09-19T17:46:17;18.00;68.20
61591;DHT22;71994;52.410;-1.966;2023-09-19T17:49:27;18.00;68.20
61591;DHT22;71994;52.410;-1.966;2023-09-19T17:52:33;18.10;68.20
61591;DHT22;71994;52.410;-1.966;2023-09-19T17:55:39;18.00;68.10
61591;DHT22;71994;52.410;-1.966;2023-09-19T17:58:46;18.00;68.10
61591;DHT22;71994;52.410;-1.966;2023-09-19T18:01:58;18.00;68.20
61591;DHT22;71994;52.410;-1.966;2023-09-19T18:05:07;18.00;68.20
61591;DHT22;71994;52.410;-1.966;2023-09-19T18:08:19;18.00;68.20
61591;DHT22;71994;52.410;-1.966;2023-09-19T18:11:26;18.00;68.20
61591;DHT22;71994;52.410;-1.966;2023-09-19T18:14:33;18.00;68.20
61591;DHT22;71994;52.410;-1.966;2023-09-19T18:17:40;18.00;68.20
61591;DHT22;71994;52.410;-1.966;2023-09-19T18:20:49;18.00;68.60
61591;DHT22;71994;52.410;-1.966;2023-09-19T18:23:56;17.90;68.60
61591;DHT22;71994;52.410;-1.966;2023-09-19T18:27:04;18.00;68.70
61591;DHT22;71994;52.410;-1.966;2023-09-19T18:30:12;17.90;69.10
61591;DHT22;71994;52.410;-1.966;2023-09-19T18:33:19;18.00;69.40
61591;DHT22;71994;52.410;-1.966;2023-09-19T18:36:28;18.00;69.60
61591;DHT22;71994;52.410;-1.966;2023-09-19T18:39:34;18.00;69.80
61591;DHT22;71994;52.410;-1.966;2023-09-19T18:42:41;18.00;69.80
61591;DHT22;71994;52.410;-1.966;2023-09-19T18:45:55;18.10;69.80
61591;DHT22;71994;52.410;-1.966;2023-09-19T18:49:04;18.10;69.50
61591;DHT22;71994;52.410;-1.966;2023-09-19T18:52:16;18.10;69.20
61591;DHT22;71994;52.410;-1.966;2023-09-19T18:55:23;18.20;69.00
61591;DHT22;71994;52.410;-1.966;2023-09-19T18:58:30;18.20;69.00
61591;DHT22;71994;52.410;-1.966;2023-09-19T19:01:37;18.30;69.00
61591;DHT22;71994;52.410;-1.966;2023-09-19T19:04:43;18.30;69.60
61591;DHT22;71994;52.410;-1.966;2023-09-19T19:07:52;18.30;69.90
61591;DHT22;71994;52.410;-1.966;2023-09-19T19:11:00;18.30;70.50
61591;DHT22;71994;52.410;-1.966;2023-09-19T19:14:07;18.40;70.90
61591;DHT22;71994;52.410;-1.966;2023-09-19T19:17:15;18.40;71.40
61591;DHT22;71994;52.410;-1.966;2023-09-19T19:20:24;18.30;71.60
61591;DHT22;71994;52.410;-1.966;2023-09-19T19:23:34;18.30;71.60
61591;DHT22;71994;52.410;-1.966;2023-09-19T19:26:41;18.30;71.60
61591;DHT22;71994;52.410;-1.966;2023-09-19T19:29:48;18.30;71.30
61591;DHT22;71994;52.410;-1.966;2023-09-19T19:32:55;18.30;71.20
61591;DHT22;71994;52.410;-1.966;2023-09-19T19:36:05;18.20;71.10
61591;DHT22;71994;52.410;-1.966;2023-09-19T19:39:14;18.30;70.90
61591;DHT22;71994;52.410;-1.966;2023-09-19T19:42:21;18.30;70.70
61591;DHT22;71994;52.410;-1.966;2023-09-19T19:45:27;18.30;70.50